createdAt,value
2023-04-20T00:00:11.740Z,85423.97
2023-04-20T00:02:42.081Z,85416.44
2023-04-20T00:05:10.589Z,85430.19
2023-04-20T00:07:38.790Z,85426.03
2023-04-20T00:10:07.197Z,85449.38
2023-04-20T00:12:34.220Z,85441.13
2023-04-20T00:15:01.348Z,85426.06
2023-04-20T00:17:28.427Z,85376.78
2023-04-20T00:19:55.558Z,85397.28
2023-04-20T00:22:22.589Z,85429.97
2023-04-20T00:24:49.540Z,85376.06
2023-04-20T00:27:16.687Z,85343.19
2023-04-20T00:29:43.792Z,85421.09
2023-04-20T00:32:10.911Z,85360.25
2023-04-20T00:34:37.890Z,85382.16
2023-04-20T00:37:04.959Z,85393.09
2023-04-20T00:39:32.065Z,85413.56
2023-04-20T00:42:09.482Z,85382.91
2023-04-20T00:44:44.922Z,85378.06
2023-04-20T00:47:11.847Z,85384.28
2023-04-20T00:49:39.249Z,85421.91
2023-04-20T00:52:06.679Z,85408.91
2023-04-20T00:54:33.769Z,85380.19
2023-04-20T00:57:00.949Z,85417.88
2023-04-20T00:59:28.356Z,85420.66
2023-04-20T01:01:55.750Z,85426.03
2023-04-20T01:04:23.004Z,85382.25
2023-04-20T01:06:50.810Z,85390.41
2023-04-20T01:09:17.914Z,85428.72
2023-04-20T01:11:45.130Z,85419.22
2023-04-20T01:14:16.465Z,85405.41
2023-04-20T01:16:45.097Z,85391.72
2023-04-20T01:19:12.773Z,85365.75
2023-04-20T01:21:39.792Z,85368.50
2023-04-20T01:24:07.285Z,85377.31
2023-04-20T01:26:34.225Z,85415.00
2023-04-20T01:29:01.507Z,85376.66
2023-04-20T01:31:28.882Z,85358.16
2023-04-20T01:33:58.233Z,85393.03
2023-04-20T01:36:25.409Z,85408.03
2023-04-20T01:38:52.599Z,85406.03
2023-04-20T01:41:19.639Z,85344.56
2023-04-20T01:43:46.741Z,85377.38
2023-04-20T01:46:13.869Z,85398.50
2023-04-20T01:48:41.018Z,85399.16
2023-04-20T01:51:09.657Z,85346.53
2023-04-20T01:53:36.725Z,85336.94
2023-04-20T01:56:03.796Z,85354.63
2023-04-20T01:58:31.493Z,85402.53
2023-04-20T02:00:58.657Z,85408.69
2023-04-20T02:03:28.100Z,85351.97
2023-04-20T02:05:55.492Z,85323.94
2023-04-20T02:08:22.740Z,85388.72
2023-04-20T02:10:49.770Z,85395.56
2023-04-20T02:13:16.750Z,85388.75
2023-04-20T02:15:45.425Z,85379.31
2023-04-20T02:18:12.877Z,85365.63
2023-04-20T02:20:39.822Z,85354.66
2023-04-20T02:23:06.817Z,85374.56
2023-04-20T02:25:35.719Z,85388.81
2023-04-20T02:28:04.445Z,85386.16
2023-04-20T02:30:31.655Z,85352.09
2023-04-20T02:32:59.139Z,85391.72
2023-04-20T02:35:26.372Z,85301.50
2023-04-20T02:37:53.340Z,85342.38
2023-04-20T02:40:20.341Z,85357.50
2023-04-20T02:42:47.387Z,85382.16
2023-04-20T02:45:14.429Z,85384.91
2023-04-20T02:47:44.288Z,85334.97
2023-04-20T02:50:12.979Z,85382.09
2023-04-20T02:52:57.646Z,85345.91
2023-04-20T02:55:24.941Z,85345.91
2023-04-20T02:57:54.768Z,85354.25
2023-04-20T03:00:26.911Z,85391.81
2023-04-20T03:03:03.834Z,85367.81
2023-04-20T03:05:31.648Z,85384.94
2023-04-20T03:07:58.781Z,85351.41
2023-04-20T03:10:26.909Z,85389.72
2023-04-20T03:13:01.835Z,85356.25
2023-04-20T03:15:32.563Z,85367.22
2023-04-20T03:18:08.611Z,85380.09
2023-04-20T03:20:36.049Z,85382.13
2023-04-20T03:23:03.099Z,85389.06
2023-04-20T03:25:30.663Z,85387.69
2023-04-20T03:27:59.757Z,85393.22
2023-04-20T03:30:27.297Z,85309.22
2023-04-20T03:33:03.340Z,85363.13
2023-04-20T03:35:30.461Z,85378.25
2023-04-20T03:37:57.500Z,85357.75
2023-04-20T03:40:24.742Z,85375.53
2023-04-20T03:42:51.656Z,85372.09
2023-04-20T03:45:18.779Z,85367.25
2023-04-20T03:47:45.928Z,85393.28
2023-04-20T03:50:12.929Z,85351.56
2023-04-20T03:52:41.139Z,85389.09
2023-04-20T03:55:10.328Z,85338.66
2023-04-20T03:57:40.912Z,85389.88
2023-04-20T04:00:10.937Z,85385.72
2023-04-20T04:02:47.072Z,85387.75
2023-04-20T04:05:19.388Z,85385.75
2023-04-20T04:07:49.382Z,85374.13
2023-04-20T04:10:19.041Z,85357.72
2023-04-20T04:12:46.346Z,85331.88
2023-04-20T04:15:14.201Z,85346.81
2023-04-20T04:17:49.575Z,85363.22
2023-04-20T04:20:16.831Z,85360.56
2023-04-20T04:22:44.087Z,85355.06
2023-04-20T04:25:40.727Z,85363.25
2023-04-20T04:28:09.703Z,85312.72
2023-04-20T04:30:42.342Z,85394.00
2023-04-20T04:33:10.407Z,85396.03
2023-04-20T04:35:41.665Z,85395.44
2023-04-20T04:38:09.691Z,85312.06
2023-04-20T04:40:38.273Z,85361.25
2023-04-20T04:43:07.808Z,85371.41
2023-04-20T04:45:41.113Z,85297.59
2023-04-20T04:48:12.566Z,85337.31
2023-04-20T04:50:40.083Z,85380.31
2023-04-20T04:53:07.955Z,85375.53
2023-04-20T04:55:34.883Z,85359.22
2023-04-20T04:58:01.902Z,85347.50
2023-04-20T05:00:29.503Z,85339.31
2023-04-20T05:02:56.981Z,85406.97
2023-04-20T05:05:25.577Z,85415.91
2023-04-20T05:07:52.564Z,85372.94
2023-04-20T05:10:19.567Z,85383.91
2023-04-20T05:12:46.774Z,85423.53
2023-04-20T05:15:13.733Z,85421.47
2023-04-20T05:17:40.919Z,85426.34
2023-04-20T05:20:10.735Z,85411.97
2023-04-20T05:22:38.372Z,85424.88
2023-04-20T05:25:06.669Z,85428.25
2023-04-20T05:27:34.204Z,85394.88
2023-04-20T05:30:13.157Z,85433.06
2023-04-20T05:32:50.698Z,85401.66
2023-04-20T05:35:18.999Z,85437.84
2023-04-20T05:37:47.781Z,85422.75
2023-04-20T05:40:15.436Z,85436.47
2023-04-20T05:42:42.423Z,85417.78
2023-04-20T05:45:10.094Z,85443.97
2023-04-20T05:47:37.243Z,85345.47
2023-04-20T05:50:05.188Z,85389.31
2023-04-20T05:52:32.252Z,85434.28
2023-04-20T05:54:59.729Z,85319.50
2023-04-20T05:57:26.695Z,85410.38
2023-04-20T05:59:56.041Z,85391.81
2023-04-20T06:02:23.330Z,85413.63
2023-04-20T06:04:50.628Z,85435.56
2023-04-20T06:07:17.892Z,85424.56
2023-04-20T06:09:44.882Z,85431.34
2023-04-20T06:12:12.072Z,85404.56
2023-04-20T06:14:39.065Z,85376.53
2023-04-20T06:17:06.253Z,85379.38
2023-04-20T06:19:33.267Z,85398.38
2023-04-20T06:22:01.282Z,85421.53
2023-04-20T06:24:28.462Z,85430.44
2023-04-20T06:26:55.500Z,85420.06
2023-04-20T06:29:22.555Z,85370.88
2023-04-20T06:31:49.532Z,85416.63
2023-04-20T06:34:16.826Z,85389.88
2023-04-20T06:36:43.979Z,85423.34
2023-04-20T06:39:11.770Z,85415.84
2023-04-20T06:41:39.370Z,85344.03
2023-04-20T06:44:07.211Z,85391.81
2023-04-20T06:46:34.455Z,85419.75
2023-04-20T06:49:02.184Z,85393.75
2023-04-20T06:51:29.945Z,85433.28
2023-04-20T06:53:56.960Z,85369.03
2023-04-20T06:56:24.346Z,85340.16
2023-04-20T06:58:51.408Z,85379.63
2023-04-20T07:01:18.491Z,85307.13
2023-04-20T07:03:47.308Z,85433.25
2023-04-20T07:06:15.806Z,85412.09
2023-04-20T07:08:43.183Z,85417.31
2023-04-20T07:11:10.197Z,85392.63
2023-04-20T07:13:37.204Z,85407.44
2023-04-20T07:16:04.672Z,85429.31
2023-04-20T07:18:33.971Z,85428.34
2023-04-20T07:21:02.326Z,85439.25
2023-04-20T07:23:29.261Z,85407.16
2023-04-20T07:25:56.293Z,85431.03
2023-04-20T07:28:23.353Z,85407.06
2023-04-20T07:30:50.428Z,85442.50
2023-04-20T07:33:17.463Z,85414.53
2023-04-20T07:35:44.604Z,85399.59
2023-04-20T07:38:17.353Z,85431.47
2023-04-20T07:40:44.342Z,85379.28
2023-04-20T07:43:11.321Z,85415.56
2023-04-20T07:45:41.627Z,85446.25
2023-04-20T07:48:09.817Z,85449.66
2023-04-20T07:50:36.918Z,85451.00
2023-04-20T07:53:03.829Z,85448.63
2023-04-20T07:55:30.869Z,85429.63
2023-04-20T07:57:58.011Z,85464.78
2023-04-20T08:00:25.613Z,85467.72
2023-04-20T08:02:53.031Z,85431.50
2023-04-20T08:05:20.311Z,85463.00
2023-04-20T08:07:47.264Z,85465.72
2023-04-20T08:10:14.392Z,85438.47
2023-04-20T08:12:41.508Z,85448.00
2023-04-20T08:15:09.316Z,85438.50
2023-04-20T08:17:36.263Z,85457.53
2023-04-20T08:20:05.979Z,85468.59
2023-04-20T08:22:33.756Z,85435.78
2023-04-20T08:25:00.799Z,85461.88
2023-04-20T08:27:29.838Z,85470.13
2023-04-20T08:29:57.358Z,85468.81
2023-04-20T08:32:27.022Z,85478.56
2023-04-20T08:34:54.320Z,85417.16
2023-04-20T08:37:21.476Z,85451.22
2023-04-20T08:39:48.486Z,85467.50
2023-04-20T08:42:17.068Z,85423.28
2023-04-20T08:44:43.979Z,85456.84
2023-04-20T08:47:12.125Z,85462.25
2023-04-20T08:49:40.228Z,85475.25
2023-04-20T08:52:10.861Z,85436.31
2023-04-20T08:54:46.001Z,85477.28
2023-04-20T08:57:20.213Z,85395.25
2023-04-20T08:59:47.158Z,85412.97
2023-04-20T09:02:15.147Z,85440.34
2023-04-20T09:04:42.514Z,85429.41
2023-04-20T09:07:20.355Z,85411.06
2023-04-20T09:09:57.577Z,85470.44
2023-04-20T09:12:25.037Z,85485.47
2023-04-20T09:14:52.698Z,85439.09
2023-04-20T09:17:39.521Z,85488.22
2023-04-20T09:20:07.707Z,85454.63
2023-04-20T09:22:36.568Z,85482.72
2023-04-20T09:25:17.203Z,85455.38
2023-04-20T09:27:44.232Z,85473.28
2023-04-20T09:30:11.972Z,85404.88
2023-04-20T09:32:38.945Z,85473.19
2023-04-20T09:35:07.919Z,85471.78
2023-04-20T09:37:34.867Z,85441.53
2023-04-20T09:40:02.626Z,85410.88
2023-04-20T09:42:32.010Z,85392.41
2023-04-20T09:45:00.194Z,85444.31
2023-04-20T09:47:29.882Z,85448.31
2023-04-20T09:50:00.045Z,85463.97
2023-04-20T09:52:27.759Z,85473.69
2023-04-20T09:54:55.376Z,85461.84
2023-04-20T09:57:23.569Z,85468.06
2023-04-20T09:59:53.176Z,85379.84
2023-04-20T10:02:20.853Z,85450.72
2023-04-20T10:05:01.999Z,85454.56
2023-04-20T10:07:33.320Z,85395.94
2023-04-20T10:10:07.288Z,85460.00
2023-04-20T10:12:37.143Z,85348.66
2023-04-20T10:15:04.545Z,85429.84
2023-04-20T10:17:32.997Z,85380.53
2023-04-20T10:20:00.393Z,85381.00
2023-04-20T10:22:33.897Z,85422.84
2023-04-20T10:25:02.514Z,85439.94
2023-04-20T10:27:32.356Z,85458.41
2023-04-20T10:30:10.645Z,85452.22
2023-04-20T10:32:37.929Z,85392.69
2023-04-20T10:35:11.042Z,85465.09
2023-04-20T10:37:48.868Z,85459.66
2023-04-20T10:40:16.213Z,85431.69
2023-04-20T10:42:46.758Z,85335.41
2023-04-20T10:45:14.275Z,85454.09
2023-04-20T10:47:41.961Z,85238.69
2023-04-20T10:50:14.365Z,85265.69
2023-04-20T10:52:43.582Z,85328.63
2023-04-20T10:55:25.179Z,85292.41
2023-04-20T10:57:53.016Z,85373.50
2023-04-20T11:00:29.771Z,85454.56
2023-04-20T11:02:57.626Z,85384.31
2023-04-20T11:05:27.578Z,85413.00
2023-04-20T11:07:57.291Z,85413.47
2023-04-20T11:10:37.693Z,85452.97
2023-04-20T11:13:04.933Z,85397.63
2023-04-20T11:15:33.044Z,85393.34
2023-04-20T11:18:12.012Z,85383.78
2023-04-20T11:20:53.847Z,85359.25
2023-04-20T11:23:22.374Z,85386.31
2023-04-20T11:25:57.223Z,85386.94
2023-04-20T11:28:24.377Z,85463.53
2023-04-20T11:30:51.426Z,85274.69
2023-04-20T11:33:32.223Z,85458.97
2023-04-20T11:36:01.220Z,85426.16
2023-04-20T11:38:32.955Z,85427.59
2023-04-20T11:41:04.851Z,85448.84
2023-04-20T11:43:32.764Z,85446.66
2023-04-20T11:46:05.346Z,85362.66
2023-04-20T11:48:32.818Z,85309.53
2023-04-20T11:51:00.011Z,85362.38
2023-04-20T11:53:27.024Z,85384.94
2023-04-20T11:55:54.176Z,85434.16
2023-04-20T11:58:21.160Z,85375.22
2023-04-20T12:00:48.204Z,85458.78
2023-04-20T12:03:15.433Z,85372.78
2023-04-20T12:05:43.340Z,85267.41
2023-04-20T12:08:10.511Z,85363.06
2023-04-20T12:10:37.609Z,85425.13
2023-04-20T12:13:04.680Z,85388.22
2023-04-20T12:15:31.931Z,85457.78
2023-04-20T12:17:59.173Z,85387.44
2023-04-20T12:20:26.423Z,85374.59
2023-04-20T12:22:53.553Z,85397.53
2023-04-20T12:25:20.802Z,85356.72
2023-04-20T12:27:49.435Z,85429.84
2023-04-20T12:30:17.154Z,85346.59
2023-04-20T12:32:44.233Z,85387.84
2023-04-20T12:35:11.414Z,85414.75
2023-04-20T12:37:38.616Z,85402.03
2023-04-20T12:40:07.353Z,85445.84
2023-04-20T12:42:34.443Z,85356.19
2023-04-20T12:45:01.612Z,85412.63
2023-04-20T12:47:28.658Z,85437.34
2023-04-20T12:49:56.403Z,85339.66
2023-04-20T12:52:23.502Z,85366.31
2023-04-20T12:54:50.652Z,85424.94
2023-04-20T12:57:17.762Z,85384.00
2023-04-20T12:59:44.709Z,85355.41
2023-04-20T13:02:12.233Z,85330.63
2023-04-20T13:04:39.362Z,85371.59
2023-04-20T13:07:07.298Z,85326.63
2023-04-20T13:09:34.337Z,85304.75
2023-04-20T13:12:01.501Z,85407.44
2023-04-20T13:14:28.447Z,85407.19
2023-04-20T13:16:57.288Z,85355.84
2023-04-20T13:19:24.406Z,85346.94
2023-04-20T13:21:51.362Z,85399.66
2023-04-20T13:24:18.619Z,85321.91
2023-04-20T13:26:45.944Z,85300.31
2023-04-20T13:29:13.137Z,85335.41
2023-04-20T13:31:40.902Z,85365.63
2023-04-20T13:34:08.174Z,85351.13
2023-04-20T13:36:35.181Z,85407.63
2023-04-20T13:39:02.269Z,85377.00
2023-04-20T13:41:29.418Z,85329.88
2023-04-20T13:43:58.324Z,85344.22
2023-04-20T13:46:25.497Z,85346.97
2023-04-20T13:48:52.637Z,85282.25
2023-04-20T13:51:20.181Z,85348.31
2023-04-20T13:53:49.986Z,85348.59
2023-04-20T13:56:17.383Z,85411.84
2023-04-20T13:58:44.815Z,85387.28
2023-04-20T14:01:13.321Z,85417.34
2023-04-20T14:03:41.934Z,85417.38
2023-04-20T14:06:09.370Z,85372.84
2023-04-20T14:08:36.586Z,85420.63
2023-04-20T14:11:03.665Z,85417.09
2023-04-20T14:13:30.681Z,85385.59
2023-04-20T14:15:58.949Z,85287.50
2023-04-20T14:18:26.033Z,85382.81
2023-04-20T14:20:53.195Z,85410.69
2023-04-20T14:23:20.264Z,85412.72
2023-04-20T14:25:47.372Z,85397.38
2023-04-20T14:28:16.973Z,85380.66
2023-04-20T14:30:45.849Z,85374.13
2023-04-20T14:33:13.053Z,85364.84
2023-04-20T14:35:40.611Z,85382.56
2023-04-20T14:38:10.964Z,85405.56
2023-04-20T14:40:38.202Z,85382.28
2023-04-20T14:43:05.238Z,85350.94
2023-04-20T14:45:32.319Z,85359.31
2023-04-20T14:47:59.410Z,85393.69
2023-04-20T14:50:27.708Z,85418.91
2023-04-20T14:52:55.865Z,85380.69
2023-04-20T14:55:26.016Z,85367.31
2023-04-20T14:57:56.376Z,85382.44
2023-04-20T15:00:25.351Z,85362.00
2023-04-20T15:02:53.469Z,85419.25
2023-04-20T15:05:20.842Z,85420.16
2023-04-20T15:07:50.912Z,85248.53
2023-04-20T15:10:19.949Z,85382.88
2023-04-20T15:12:48.068Z,85421.00
2023-04-20T15:15:15.657Z,85417.50
2023-04-20T15:17:42.865Z,85283.50
2023-04-20T15:20:10.398Z,85416.91
2023-04-20T15:22:37.866Z,85427.78
2023-04-20T15:25:05.798Z,85421.25
2023-04-20T15:27:32.870Z,85352.91
2023-04-20T15:30:00.022Z,85317.81
2023-04-20T15:32:29.050Z,85433.41
2023-04-20T15:34:57.019Z,85367.25
2023-04-20T15:37:24.151Z,85425.34
2023-04-20T15:39:52.741Z,85428.75
2023-04-20T15:42:19.911Z,85428.75
2023-04-20T15:44:47.148Z,85390.13
2023-04-20T15:47:14.446Z,85367.56
2023-04-20T15:49:41.503Z,85393.25
2023-04-20T15:52:11.394Z,85412.28
2023-04-20T15:54:38.870Z,85416.41
2023-04-20T15:57:06.088Z,85415.16
2023-04-20T15:59:33.305Z,85425.47
2023-04-20T16:02:00.549Z,85416.34
2023-04-20T16:04:27.686Z,85402.69
2023-04-20T16:06:55.565Z,85426.00
2023-04-20T16:09:23.737Z,85401.22
2023-04-20T16:11:51.207Z,85395.84
2023-04-20T16:14:18.640Z,85417.69
2023-04-20T16:16:45.951Z,85431.25
2023-04-20T16:19:16.018Z,85363.25
2023-04-20T16:21:43.117Z,85390.66
2023-04-20T16:24:10.127Z,85426.03
2023-04-20T16:26:37.714Z,85378.91
2023-04-20T16:29:06.053Z,85423.13
2023-04-20T16:31:33.325Z,85422.53
2023-04-20T16:34:01.159Z,85422.00
2023-04-20T16:36:31.525Z,85426.84
2023-04-20T16:38:59.200Z,85382.75
2023-04-20T16:41:27.421Z,85390.78
2023-04-20T16:43:55.490Z,85306.34
2023-04-20T16:46:23.010Z,85402.59
2023-04-20T16:48:51.185Z,85356.84
2023-04-20T16:51:18.346Z,85426.44
2023-04-20T16:53:45.654Z,85402.16
2023-04-20T16:56:12.997Z,85385.06
2023-04-20T16:58:40.282Z,85410.31
2023-04-20T17:01:11.285Z,85397.47
2023-04-20T17:03:38.559Z,85371.63
2023-04-20T17:06:08.209Z,85400.81
2023-04-20T17:08:37.577Z,85422.47
2023-04-20T17:11:05.231Z,85412.75
2023-04-20T17:13:33.824Z,85439.97
2023-04-20T17:16:01.012Z,85356.31
2023-04-20T17:18:28.212Z,85459.63
2023-04-20T17:20:57.460Z,85390.00
2023-04-20T17:23:26.534Z,85464.47
2023-04-20T17:25:54.978Z,85446.84
2023-04-20T17:28:22.097Z,85410.50
2023-04-20T17:30:49.210Z,85407.22
2023-04-20T17:33:16.965Z,85383.31
2023-04-20T17:35:45.904Z,85420.75
2023-04-20T17:38:12.920Z,85404.66
2023-04-20T17:40:40.103Z,85387.53
2023-04-20T17:43:07.144Z,85451.09
2023-04-20T17:45:34.233Z,85466.81
2023-04-20T17:48:01.346Z,85436.16
2023-04-20T17:50:28.353Z,85408.88
2023-04-20T17:52:55.413Z,85470.28
2023-04-20T17:55:22.656Z,85473.06
2023-04-20T17:57:49.666Z,85441.97
2023-04-20T18:00:16.950Z,85445.56
2023-04-20T18:02:44.194Z,85473.38
2023-04-20T18:05:11.626Z,85444.72
2023-04-20T18:07:38.605Z,85425.69
2023-04-20T18:10:06.158Z,85451.53
2023-04-20T18:12:34.138Z,85472.22
2023-04-20T18:15:01.553Z,85483.72
2023-04-20T18:17:28.598Z,85462.78
2023-04-20T18:19:55.699Z,85453.25
2023-04-20T18:22:24.338Z,85442.25
2023-04-20T18:24:52.056Z,85380.84
2023-04-20T18:27:19.194Z,85467.19
2023-04-20T18:29:46.522Z,85486.47
2023-04-20T18:32:16.467Z,85465.19
2023-04-20T18:34:44.170Z,85513.88
2023-04-20T18:37:12.637Z,85480.56
2023-04-20T18:39:39.999Z,85439.59
2023-04-20T18:42:07.081Z,85508.56
2023-04-20T18:44:34.327Z,85464.34
2023-04-20T18:47:01.746Z,85478.72
2023-04-20T18:49:30.353Z,85510.16
2023-04-20T18:51:57.597Z,85486.16
2023-04-20T18:54:24.683Z,85530.72
2023-04-20T18:56:51.739Z,85522.47
2023-04-20T18:59:18.864Z,85542.38
2023-04-20T19:01:46.083Z,85527.56
2023-04-20T19:04:13.267Z,85539.19
2023-04-20T19:06:40.417Z,85440.03
2023-04-20T19:09:08.393Z,85531.59
2023-04-20T19:11:35.637Z,85541.78
2023-04-20T19:14:02.828Z,85492.53
2023-04-20T19:16:31.569Z,85509.09
2023-04-20T19:18:59.156Z,85497.34
2023-04-20T19:21:27.181Z,85500.78
2023-04-20T19:23:54.191Z,85518.88
2023-04-20T19:26:21.615Z,85546.88
2023-04-20T19:28:48.749Z,85533.13
2023-04-20T19:31:16.242Z,85540.72
2023-04-20T19:33:45.168Z,85548.88
2023-04-20T19:36:12.195Z,85553.72
2023-04-20T19:38:39.313Z,85471.59
2023-04-20T19:41:06.599Z,85485.88
2023-04-20T19:43:34.639Z,85544.75
2023-04-20T19:46:01.858Z,85487.41
2023-04-20T19:48:28.991Z,85522.91
2023-04-20T19:50:59.844Z,85526.41
2023-04-20T19:53:27.209Z,85539.25
2023-04-20T19:55:57.071Z,85462.53
2023-04-20T19:58:24.490Z,85526.84
2023-04-20T20:00:51.610Z,85522.13
2023-04-20T20:03:18.903Z,85545.34
2023-04-20T20:05:46.196Z,85478.56
2023-04-20T20:08:13.790Z,85541.88
2023-04-20T20:10:41.668Z,85522.06
2023-04-20T20:13:08.835Z,85532.25
2023-04-20T20:15:37.706Z,85523.41
2023-04-20T20:18:05.083Z,85507.81
2023-04-20T20:20:32.630Z,85495.44
2023-04-20T20:23:25.415Z,85528.47
2023-04-20T20:25:52.526Z,85519.00
2023-04-20T20:28:19.533Z,85524.28
2023-04-20T20:30:46.632Z,85554.31
2023-04-20T20:33:13.649Z,85554.31
2023-04-20T20:35:40.967Z,85519.41
2023-04-20T20:38:33.099Z,85558.44
2023-04-20T20:41:00.144Z,85485.91
2023-04-20T20:43:28.717Z,85518.75
2023-04-20T20:45:55.763Z,85520.09
2023-04-20T20:48:22.963Z,85506.44
2023-04-20T20:50:49.896Z,85522.16
2023-04-20T20:53:20.478Z,85543.34
2023-04-20T20:55:47.613Z,85536.53
2023-04-20T20:58:14.688Z,85548.72
2023-04-20T21:00:41.931Z,85555.63
2023-04-20T21:03:09.106Z,85525.63
2023-04-20T21:05:36.127Z,85541.81
2023-04-20T21:08:03.406Z,85552.81
2023-04-20T21:10:30.439Z,85502.97
2023-04-20T21:12:57.482Z,85558.34
2023-04-20T21:15:24.508Z,85546.84
2023-04-20T21:17:51.473Z,85547.44
2023-04-20T21:20:18.492Z,85557.78
2023-04-20T21:22:45.499Z,85520.75
2023-04-20T21:25:12.600Z,85530.91
2023-04-20T21:27:39.600Z,85554.34
2023-04-20T21:30:13.853Z,85543.41
2023-04-20T21:32:40.878Z,85522.91
2023-04-20T21:35:08.373Z,85555.78
2023-04-20T21:37:35.345Z,85518.88
2023-04-20T21:40:02.397Z,85530.56
2023-04-20T21:42:29.877Z,85531.19
2023-04-20T21:44:56.909Z,85498.56
2023-04-20T21:47:23.901Z,85546.28
2023-04-20T21:49:50.878Z,85549.13
2023-04-20T21:52:18.066Z,85528.50
2023-04-20T21:54:45.191Z,85545.66
2023-04-20T21:57:12.450Z,85515.03
2023-04-20T21:59:39.537Z,85525.88
2023-04-20T22:02:06.830Z,85535.19
2023-04-20T22:04:34.193Z,85554.66
2023-04-20T22:07:01.320Z,85521.72
2023-04-20T22:09:28.409Z,85506.63
2023-04-20T22:11:55.968Z,85505.31
2023-04-20T22:14:22.979Z,85504.00
2023-04-20T22:16:49.990Z,85503.94
2023-04-20T22:19:17.695Z,85525.78
2023-04-20T22:21:44.853Z,85531.31
2023-04-20T22:24:11.847Z,85504.63
2023-04-20T22:26:38.870Z,85509.47
2023-04-20T22:29:05.929Z,85538.06
2023-04-20T22:31:33.023Z,85427.22
2023-04-20T22:34:00.102Z,85483.38
2023-04-20T22:36:28.190Z,85507.25
2023-04-20T22:38:55.363Z,85529.94
2023-04-20T22:41:22.452Z,85528.56
2023-04-20T22:43:49.541Z,85485.47
2023-04-20T22:46:22.472Z,85481.97
2023-04-20T22:48:49.595Z,85493.03
2023-04-20T22:51:17.424Z,85516.16
2023-04-20T22:53:44.795Z,85508.59
2023-04-20T22:56:11.847Z,85450.59
2023-04-20T22:58:38.962Z,85486.22
2023-04-20T23:01:06.195Z,85468.31
2023-04-20T23:03:33.402Z,85490.13
2023-04-20T23:06:00.497Z,85473.72
2023-04-20T23:08:28.431Z,85499.63
2023-04-20T23:10:55.677Z,85494.75
2023-04-20T23:13:24.789Z,85462.66
2023-04-20T23:15:52.323Z,85496.91
2023-04-20T23:18:19.469Z,85452.38
2023-04-20T23:20:46.652Z,85466.72
2023-04-20T23:23:13.782Z,85468.06
2023-04-20T23:25:40.874Z,85445.47
2023-04-20T23:28:08.068Z,85418.91
2023-04-20T23:30:35.313Z,85388.84
2023-04-20T23:33:02.294Z,85431.22
2023-04-20T23:35:29.478Z,85480.47
2023-04-20T23:37:58.197Z,85428.63
2023-04-20T23:40:26.441Z,85390.34
2023-04-20T23:42:55.211Z,85446.34
2023-04-20T23:45:23.284Z,85462.66
2023-04-20T23:47:50.626Z,85437.41
2023-04-20T23:50:18.053Z,85444.31
2023-04-20T23:52:45.065Z,85376.59
2023-04-20T23:55:12.157Z,85457.88
2023-04-20T23:57:39.416Z,85418.22
